createdAt,value
2018-04-25T00:01:42.021Z,78.30
2018-04-25T00:04:08.729Z,78.40
2018-04-25T00:06:34.686Z,78.40
2018-04-25T00:09:00.643Z,78.50
2018-04-25T00:11:27.354Z,79.20
2018-04-25T00:13:53.311Z,78.50
2018-04-25T00:16:19.474Z,78.80
2018-04-25T00:18:46.202Z,78.80
2018-04-25T00:21:12.181Z,78.80
2018-04-25T00:23:38.150Z,78.90
2018-04-25T00:26:04.155Z,79.10
2018-04-25T00:28:30.111Z,79.10
2018-04-25T00:30:56.072Z,79.20
2018-04-25T00:33:22.282Z,79.40
2018-04-25T00:35:48.297Z,79.70
2018-04-25T00:38:15.536Z,79.90
2018-04-25T00:40:41.732Z,80.00
2018-04-25T00:43:07.681Z,80.00
2018-04-25T00:45:33.691Z,79.80
2018-04-25T00:47:59.663Z,80.90
2018-04-25T00:50:25.614Z,80.90
2018-04-25T00:52:52.321Z,81.40
2018-04-25T00:55:18.366Z,81.30
2018-04-25T00:57:44.348Z,81.60
2018-04-25T01:00:11.047Z,82.10
2018-04-25T01:02:37.021Z,82.00
2018-04-25T01:05:02.973Z,82.70
2018-04-25T01:07:29.656Z,83.00
2018-04-25T01:09:55.639Z,82.90
2018-04-25T01:12:21.612Z,82.90
2018-04-25T01:14:47.606Z,82.90
2018-04-25T01:17:13.677Z,83.10
2018-04-25T01:19:39.635Z,82.90
2018-04-25T01:22:05.572Z,82.80
2018-04-25T01:24:31.843Z,82.50
2018-04-25T01:26:59.648Z,83.00
2018-04-25T01:29:25.608Z,82.90
2018-04-25T01:31:52.348Z,83.20
2018-04-25T01:34:21.984Z,83.20
2018-04-25T01:39:53.374Z,82.50
2018-04-25T01:45:46.048Z,83.60
2018-04-25T01:48:30.923Z,83.50
2018-04-25T01:50:56.754Z,84.70
2018-04-25T01:53:35.158Z,84.50
2018-04-25T01:56:13.654Z,84.90
2018-04-25T01:58:52.160Z,85.20
2018-04-25T02:01:18.775Z,85.80
2018-04-25T02:03:52.824Z,85.80
2018-04-25T02:06:18.821Z,85.80
2018-04-25T02:08:44.918Z,86.70
2018-04-25T02:11:10.999Z,86.00
2018-04-25T02:13:36.954Z,86.20
2018-04-25T02:16:02.942Z,86.30
2018-04-25T02:18:34.635Z,86.30
2018-04-25T02:21:00.596Z,86.90
2018-04-25T02:23:26.550Z,87.10
2018-04-25T02:25:53.287Z,87.20
2018-04-25T02:28:19.274Z,87.20
2018-04-25T02:30:45.275Z,87.40
2018-04-25T02:33:12.714Z,87.50
2018-04-25T02:35:38.676Z,87.30
2018-04-25T02:38:05.409Z,88.20
2018-04-25T02:40:31.362Z,87.50
2018-04-25T02:42:57.318Z,87.70
2018-04-25T02:45:24.022Z,87.60
2018-04-25T02:47:49.995Z,87.60
2018-04-25T02:50:16.755Z,87.90
2018-04-25T02:52:42.747Z,87.90
2018-04-25T02:55:08.759Z,87.70
2018-04-25T02:57:35.004Z,88.00
2018-04-25T03:00:00.976Z,88.50
2018-04-25T03:02:26.972Z,88.00
2018-04-25T03:04:52.923Z,88.10
2018-04-25T03:07:18.922Z,88.20
2018-04-25T03:09:44.907Z,88.20
2018-04-25T03:12:10.880Z,88.50
2018-04-25T03:14:37.579Z,89.60
2018-04-25T03:17:03.554Z,90.20
2018-04-25T03:19:29.905Z,89.60
2018-04-25T03:21:56.910Z,90.40
2018-04-25T03:24:22.899Z,90.40
2018-04-25T03:26:49.594Z,90.80
2018-04-25T03:29:15.559Z,90.80
2018-04-25T03:31:41.523Z,90.90
2018-04-25T03:34:08.208Z,91.10
2018-04-25T03:36:34.162Z,91.10
2018-04-25T03:39:00.402Z,91.00
2018-04-25T03:41:26.350Z,91.00
2018-04-25T03:43:52.298Z,91.00
2018-04-25T03:46:18.327Z,91.20
2018-04-25T03:48:44.294Z,91.40
2018-04-25T03:51:10.993Z,91.20
2018-04-25T03:53:37.126Z,91.20
2018-04-25T03:56:03.106Z,91.30
2018-04-25T03:58:29.047Z,91.30
2018-04-25T04:00:55.010Z,91.40
2018-04-25T04:03:20.959Z,91.50
2018-04-25T04:05:46.927Z,91.50
2018-04-25T04:08:12.907Z,91.50
2018-04-25T04:10:38.858Z,91.50
2018-04-25T04:13:04.880Z,91.40
2018-04-25T04:15:30.819Z,91.50
2018-04-25T04:17:56.775Z,91.50
2018-04-25T04:20:22.739Z,91.40
2018-04-25T04:22:48.716Z,91.40
2018-04-25T04:25:15.456Z,91.30
2018-04-25T04:27:42.160Z,91.40
2018-04-25T04:30:08.163Z,91.30
2018-04-25T04:32:34.120Z,91.20
2018-04-25T04:35:00.078Z,91.10
2018-04-25T04:37:26.322Z,91.10
2018-04-25T04:39:52.327Z,91.00
2018-04-25T04:42:18.294Z,91.00
2018-04-25T04:44:44.289Z,90.40
2018-04-25T04:47:10.245Z,90.10
2018-04-25T04:49:36.290Z,89.40
2018-04-25T04:52:02.202Z,88.50
2018-04-25T04:54:28.195Z,87.80
2018-04-25T04:56:54.149Z,86.40
2018-04-25T04:59:20.854Z,86.10
2018-04-25T05:01:46.827Z,86.10
2018-04-25T05:04:13.559Z,84.30
2018-04-25T05:06:39.558Z,84.40
2018-04-25T05:09:05.512Z,82.40
2018-04-25T05:11:31.471Z,80.90
2018-04-25T05:13:57.423Z,79.50
2018-04-25T05:16:24.119Z,77.10
2018-04-25T05:18:50.078Z,77.10
2018-04-25T05:21:16.062Z,75.50
2018-04-25T05:23:42.038Z,73.40
2018-04-25T05:26:08.006Z,67.60
2018-04-25T05:28:34.750Z,56.00
2018-04-25T05:31:00.699Z,56.00
2018-04-25T05:33:27.395Z,60.60
2018-04-25T05:35:53.378Z,60.60
2018-04-25T05:38:19.358Z,62.90
2018-04-25T05:40:45.330Z,64.70
2018-04-25T05:43:11.315Z,64.70
2018-04-25T05:45:37.313Z,65.20
2018-04-25T05:48:03.275Z,65.50
2018-04-25T05:50:29.999Z,66.50
2018-04-25T05:52:55.987Z,66.50
2018-04-25T05:55:21.951Z,66.80
2018-04-25T05:57:47.994Z,66.30
2018-04-25T06:00:13.969Z,66.10
2018-04-25T06:02:39.954Z,65.70
2018-04-25T06:05:05.918Z,65.60
2018-04-25T06:07:31.865Z,64.20
2018-04-25T06:09:58.562Z,63.20
2018-04-25T06:12:24.540Z,63.20
2018-04-25T06:14:50.494Z,63.20
2018-04-25T06:17:17.226Z,59.30
2018-04-25T06:19:43.579Z,59.30
2018-04-25T06:22:10.279Z,48.60
2018-04-25T06:24:36.243Z,48.50
2018-04-25T06:27:02.234Z,43.00
2018-04-25T06:29:28.184Z,38.50
2018-04-25T06:31:54.134Z,35.40
2018-04-25T06:34:20.492Z,32.30
2018-04-25T06:36:46.491Z,30.80
2018-04-25T06:39:12.481Z,29.20
2018-04-25T06:41:39.193Z,30.80
2018-04-25T06:44:05.283Z,30.20
2018-04-25T06:46:32.002Z,36.30
2018-04-25T06:48:57.979Z,36.20
2018-04-25T06:51:24.255Z,40.00
2018-04-25T06:53:50.225Z,43.40
2018-04-25T06:56:16.243Z,46.10
2018-04-25T06:58:42.214Z,49.10
2018-04-25T07:01:08.911Z,53.30
2018-04-25T07:03:34.875Z,53.30
2018-04-25T07:06:00.830Z,54.60
2018-04-25T07:08:27.522Z,58.00
2018-04-25T07:10:53.515Z,57.30
2018-04-25T07:13:19.469Z,58.10
2018-04-25T07:15:46.214Z,59.20
2018-04-25T07:18:13.252Z,59.70
2018-04-25T07:20:39.217Z,59.50
2018-04-25T07:23:05.910Z,59.10
2018-04-25T07:25:31.871Z,59.10
2018-04-25T07:27:57.823Z,59.10
2018-04-25T07:30:24.533Z,58.60
2018-04-25T07:32:50.511Z,58.60
2018-04-25T07:35:16.555Z,58.30
2018-04-25T07:37:43.287Z,55.10
2018-04-25T07:40:09.287Z,55.10
2018-04-25T07:42:35.254Z,52.40
2018-04-25T07:45:01.266Z,50.30
2018-04-25T07:47:27.235Z,45.10
2018-04-25T07:49:53.225Z,44.50
2018-04-25T07:52:20.032Z,47.50
2018-04-25T07:54:46.095Z,47.50
2018-04-25T07:57:12.067Z,49.20
2018-04-25T07:59:38.030Z,50.10
2018-04-25T08:02:04.014Z,51.10
2018-04-25T08:04:29.975Z,52.40
2018-04-25T08:06:55.934Z,51.80
2018-04-25T08:09:21.914Z,51.70
2018-04-25T08:11:47.902Z,52.20
2018-04-25T08:14:26.182Z,51.90
2018-04-25T08:17:04.611Z,51.10
2018-04-25T08:19:43.265Z,51.40
2018-04-25T08:22:09.219Z,52.20
2018-04-25T08:24:35.171Z,51.00
2018-04-25T08:27:01.163Z,50.50
2018-04-25T08:29:27.115Z,51.50
2018-04-25T08:31:53.066Z,52.50
2018-04-25T08:34:19.400Z,51.50
2018-04-25T08:36:45.391Z,49.80
2018-04-25T08:39:11.351Z,47.00
2018-04-25T08:41:37.335Z,45.10
2018-04-25T08:44:04.035Z,42.90
2018-04-25T08:46:30.022Z,42.80
2018-04-25T08:48:56.750Z,37.10
2018-04-25T08:51:22.698Z,37.00
2018-04-25T08:53:48.718Z,34.10
2018-04-25T08:56:14.765Z,33.30
2018-04-25T08:58:40.726Z,33.10
2018-04-25T09:01:07.422Z,36.00
2018-04-25T09:03:33.389Z,36.00
2018-04-25T09:06:00.090Z,38.60
2018-04-25T09:08:26.053Z,37.90
2018-04-25T09:10:52.063Z,39.80
2018-04-25T09:13:18.142Z,41.80
2018-04-25T09:15:44.947Z,44.80
2018-04-25T09:18:11.027Z,44.30
2018-04-25T09:20:36.975Z,45.90
2018-04-25T09:23:02.946Z,48.00
2018-04-25T09:25:28.903Z,49.70
2018-04-25T09:27:54.859Z,49.30
2018-04-25T09:30:20.828Z,49.40
2018-04-25T09:32:47.570Z,49.60
2018-04-25T09:35:15.031Z,50.50
2018-04-25T09:37:40.982Z,50.50
2018-04-25T09:40:06.959Z,50.50
2018-04-25T09:42:32.902Z,49.90
2018-04-25T09:44:58.855Z,49.80
2018-04-25T09:47:24.818Z,50.00
2018-04-25T09:49:50.775Z,51.00
2018-04-25T09:52:17.527Z,51.90
2018-04-25T09:54:44.651Z,53.10
2018-04-25T09:57:10.723Z,53.10
2018-04-25T09:59:37.427Z,54.50
2018-04-25T10:02:03.403Z,54.50
2018-04-25T10:04:30.099Z,55.70
2018-04-25T10:06:56.048Z,55.70
2018-04-25T10:09:22.026Z,56.40
2018-04-25T10:11:48.746Z,57.20
2018-04-25T10:14:14.720Z,57.10
2018-04-25T10:16:41.738Z,56.10
2018-04-25T10:19:07.958Z,56.00
2018-04-25T10:21:33.910Z,55.70
2018-04-25T10:24:00.058Z,55.40
2018-04-25T10:26:26.018Z,54.10
2018-04-25T10:28:52.074Z,52.90
2018-04-25T10:31:18.906Z,52.00
2018-04-25T10:33:45.243Z,52.00
2018-04-25T10:36:11.196Z,52.70
2018-04-25T10:38:37.897Z,53.70
2018-04-25T10:41:03.870Z,53.60
2018-04-25T10:43:29.818Z,53.90
2018-04-25T10:45:56.626Z,56.10
2018-04-25T10:48:22.578Z,56.10
2018-04-25T10:50:48.552Z,56.50
2018-04-25T10:53:15.290Z,56.90
2018-04-25T10:55:42.304Z,56.90
2018-04-25T10:58:08.263Z,56.80
2018-04-25T11:00:34.234Z,57.10
2018-04-25T11:03:00.925Z,57.80
2018-04-25T11:05:26.874Z,57.80
2018-04-25T11:07:53.019Z,56.90
2018-04-25T11:10:19.048Z,56.30
2018-04-25T11:12:45.054Z,55.80
2018-04-25T11:15:11.235Z,55.50
2018-04-25T11:17:37.303Z,55.70
2018-04-25T11:20:04.007Z,55.00
2018-04-25T11:22:37.001Z,55.00
2018-04-25T11:25:03.021Z,54.20
2018-04-25T11:27:28.970Z,53.70
2018-04-25T11:29:54.941Z,52.70
2018-04-25T11:32:20.902Z,52.00
2018-04-25T11:34:47.643Z,50.70
2018-04-25T11:37:15.092Z,50.00
2018-04-25T11:39:42.547Z,49.50
2018-04-25T11:42:08.519Z,49.50
2018-04-25T11:44:34.930Z,50.70
2018-04-25T11:47:00.882Z,50.70
2018-04-25T11:49:26.843Z,51.70
2018-04-25T11:51:52.817Z,52.20
2018-04-25T11:54:18.805Z,53.00
2018-04-25T11:56:45.578Z,53.70
2018-04-25T11:59:11.603Z,53.60
2018-04-25T12:01:38.299Z,51.90
2018-04-25T12:04:04.274Z,51.80
2018-04-25T12:06:30.244Z,51.30
2018-04-25T12:08:56.206Z,51.30
2018-04-25T12:11:22.163Z,51.60
2018-04-25T12:13:48.279Z,49.90
2018-04-25T12:16:14.304Z,49.10
2018-04-25T12:18:40.319Z,49.10
2018-04-25T12:21:06.285Z,49.10
2018-04-25T12:23:32.246Z,49.50
2018-04-25T12:25:59.030Z,50.10
2018-04-25T12:28:25.767Z,50.10
2018-04-25T12:30:51.782Z,50.10
2018-04-25T12:33:17.771Z,50.40
2018-04-25T12:35:43.824Z,51.10
2018-04-25T12:38:09.968Z,50.90
2018-04-25T12:40:35.922Z,50.50
2018-04-25T12:43:01.895Z,49.60
2018-04-25T12:45:28.591Z,53.20
2018-04-25T12:47:54.542Z,53.10
2018-04-25T12:50:20.510Z,53.90
2018-04-25T12:52:46.484Z,53.40
2018-04-25T12:55:12.859Z,53.60
2018-04-25T12:57:39.210Z,54.30
2018-04-25T13:00:05.187Z,53.70
2018-04-25T13:02:31.147Z,54.60
2018-04-25T13:04:57.319Z,56.90
2018-04-25T13:07:23.275Z,58.70
2018-04-25T13:09:49.247Z,61.20
2018-04-25T13:12:15.250Z,64.50
2018-04-25T13:14:41.966Z,66.60
2018-04-25T13:17:07.924Z,66.60
2018-04-25T13:19:34.051Z,68.00
2018-04-25T13:22:00.267Z,67.20
2018-04-25T13:24:26.225Z,69.10
2018-04-25T13:26:52.247Z,69.40
2018-04-25T13:29:18.233Z,68.20
2018-04-25T13:31:44.982Z,64.70
2018-04-25T13:34:11.911Z,64.00
2018-04-25T13:36:37.874Z,64.00
2018-04-25T13:39:04.571Z,65.50
2018-04-25T13:41:30.538Z,65.40
2018-04-25T13:43:56.502Z,64.10
2018-04-25T13:46:23.231Z,62.80
2018-04-25T13:48:49.264Z,62.80
2018-04-25T13:51:15.258Z,60.90
2018-04-25T13:53:41.516Z,60.10
2018-04-25T13:56:07.520Z,57.80
2018-04-25T13:58:33.490Z,58.20
2018-04-25T14:00:59.448Z,58.20
2018-04-25T14:03:26.218Z,56.70
2018-04-25T14:05:52.923Z,56.40
2018-04-25T14:08:18.895Z,56.30
2018-04-25T14:10:44.948Z,56.10
2018-04-25T14:13:11.646Z,56.10
2018-04-25T14:15:37.879Z,55.50
2018-04-25T14:18:03.856Z,54.90
2018-04-25T14:20:30.266Z,55.30
2018-04-25T14:22:56.226Z,55.50
2018-04-25T14:25:22.211Z,54.30
2018-04-25T14:27:48.364Z,53.90
2018-04-25T14:30:14.388Z,54.30
2018-04-25T14:32:40.351Z,53.90
2018-04-25T14:35:06.302Z,53.60
2018-04-25T14:37:32.254Z,55.10
2018-04-25T14:39:58.228Z,57.20
2018-04-25T14:42:24.177Z,59.00
2018-04-25T14:44:50.178Z,58.60
2018-04-25T14:47:17.688Z,59.80
2018-04-25T14:49:43.707Z,59.70
2018-04-25T14:52:09.659Z,58.80
2018-04-25T14:54:35.693Z,58.90
2018-04-25T14:57:02.343Z,58.30
2018-04-25T14:59:28.304Z,58.10
2018-04-25T15:01:54.656Z,59.00
2018-04-25T15:04:20.615Z,57.70
2018-04-25T15:06:46.572Z,57.50
2018-04-25T15:09:12.559Z,56.00
2018-04-25T15:11:38.514Z,56.20
2018-04-25T15:14:04.462Z,55.90
2018-04-25T15:16:31.166Z,55.80
2018-04-25T15:18:57.114Z,55.80
2018-04-25T15:21:23.103Z,55.70
2018-04-25T15:23:49.137Z,55.10
2018-04-25T15:26:15.891Z,56.10
2018-04-25T15:28:41.882Z,56.10
2018-04-25T15:31:07.832Z,55.90
2018-04-25T15:33:33.794Z,55.60
2018-04-25T15:35:59.763Z,55.10
2018-04-25T15:38:25.722Z,55.40
2018-04-25T15:40:51.673Z,57.30
2018-04-25T15:43:17.644Z,58.70
2018-04-25T15:45:43.626Z,60.10
2018-04-25T15:48:09.590Z,59.80
2018-04-25T15:50:36.307Z,58.00
2018-04-25T15:53:02.270Z,58.00
2018-04-25T15:55:28.235Z,58.00
2018-04-25T15:57:54.275Z,58.40
2018-04-25T16:00:20.570Z,59.30
2018-04-25T16:02:46.545Z,59.90
2018-04-25T16:05:12.516Z,59.90
2018-04-25T16:07:38.507Z,59.40
2018-04-25T16:10:05.214Z,58.90
2018-04-25T16:12:31.257Z,58.90
2018-04-25T16:14:57.212Z,58.90
2018-04-25T16:17:23.186Z,59.20
2018-04-25T16:19:49.163Z,59.20
2018-04-25T16:22:15.192Z,59.80
2018-04-25T16:24:41.159Z,60.10
2018-04-25T16:27:07.114Z,61.10
2018-04-25T16:29:33.863Z,61.20
2018-04-25T16:32:00.574Z,61.70
2018-04-25T16:34:26.533Z,61.70
2018-04-25T16:36:52.502Z,62.40
2018-04-25T16:39:18.529Z,63.10
2018-04-25T16:41:45.282Z,63.00
2018-04-25T16:44:11.247Z,62.90
2018-04-25T16:46:37.206Z,62.70
2018-04-25T16:49:03.172Z,62.40
2018-04-25T16:51:29.882Z,62.40
2018-04-25T16:53:55.950Z,62.40
2018-04-25T16:56:21.926Z,62.80
2018-04-25T16:58:47.915Z,62.90
2018-04-25T17:01:13.906Z,63.40
2018-04-25T17:03:39.887Z,63.80
2018-04-25T17:06:05.871Z,64.00
2018-04-25T17:08:31.819Z,64.00
2018-04-25T17:10:57.798Z,64.80
2018-04-25T17:13:23.755Z,65.30
2018-04-25T17:15:50.468Z,66.60
2018-04-25T17:18:17.193Z,66.70
2018-04-25T17:20:43.196Z,66.70
2018-04-25T17:23:09.906Z,67.20
2018-04-25T17:25:35.866Z,67.20
2018-04-25T17:28:02.137Z,67.70
2018-04-25T17:30:28.131Z,67.90
2018-04-25T17:32:54.097Z,68.30
2018-04-25T17:35:20.803Z,69.10
2018-04-25T17:37:46.779Z,69.10
2018-04-25T17:40:13.514Z,69.30
2018-04-25T17:42:39.468Z,69.20
2018-04-25T17:45:06.182Z,68.80
2018-04-25T17:47:32.138Z,68.80
2018-04-25T17:49:58.812Z,65.80
2018-04-25T17:52:24.802Z,62.60
2018-04-25T17:54:50.803Z,61.00
2018-04-25T17:57:16.856Z,60.40
2018-04-25T17:59:42.827Z,59.30
2018-04-25T18:02:09.530Z,58.00
2018-04-25T18:04:35.487Z,58.00
2018-04-25T18:07:01.463Z,58.10
2018-04-25T18:09:28.209Z,58.50
2018-04-25T18:11:54.186Z,58.50
2018-04-25T18:14:20.178Z,59.30
2018-04-25T18:16:46.214Z,59.30
2018-04-25T18:19:12.130Z,59.50
2018-04-25T18:21:38.143Z,59.60
2018-04-25T18:24:04.115Z,59.60
2018-04-25T18:26:30.087Z,60.10
2018-04-25T18:28:56.060Z,60.30
2018-04-25T18:31:22.258Z,59.80
2018-04-25T18:33:48.255Z,59.90
2018-04-25T18:36:14.439Z,60.20
2018-04-25T18:38:40.447Z,60.30
2018-04-25T18:41:07.169Z,61.70
2018-04-25T18:43:33.143Z,61.60
2018-04-25T18:45:59.867Z,61.60
2018-04-25T18:48:25.822Z,61.60
2018-04-25T18:50:51.800Z,61.40
2018-04-25T18:53:17.810Z,61.80
2018-04-25T18:55:44.848Z,61.90
2018-04-25T18:58:10.814Z,62.00
2018-04-25T19:00:36.795Z,62.70
2018-04-25T19:03:02.785Z,62.30
2018-04-25T19:05:28.735Z,62.60
2018-04-25T19:07:54.773Z,62.50
2018-04-25T19:10:20.955Z,62.60
2018-04-25T19:12:46.935Z,62.40
2018-04-25T19:15:13.302Z,62.30
2018-04-25T19:17:39.202Z,62.30
2018-04-25T19:20:05.917Z,63.60
2018-04-25T19:22:31.874Z,63.60
2018-04-25T19:24:58.600Z,63.70
2018-04-25T19:27:24.590Z,63.70
2018-04-25T19:29:50.570Z,63.50
2018-04-25T19:32:16.853Z,63.20
2018-04-25T19:34:42.814Z,63.90
2018-04-25T19:37:08.778Z,65.10
2018-04-25T19:39:34.738Z,64.30
2018-04-25T19:42:01.447Z,64.50
2018-04-25T19:44:27.418Z,64.70
2018-04-25T19:46:53.371Z,65.10
2018-04-25T19:49:20.083Z,65.10
2018-04-25T19:51:46.042Z,65.10
2018-04-25T19:54:12.012Z,64.80
2018-04-25T19:56:37.974Z,65.30
2018-04-25T19:59:03.980Z,65.80
2018-04-25T20:01:29.943Z,66.50
2018-04-25T20:03:55.916Z,67.10
2018-04-25T20:06:21.895Z,67.40
2018-04-25T20:08:47.883Z,67.90
2018-04-25T20:11:14.000Z,68.20
2018-04-25T20:13:39.989Z,68.50
2018-04-25T20:16:06.698Z,69.50
2018-04-25T20:18:32.703Z,69.40
2018-04-25T20:20:58.670Z,69.70
2018-04-25T20:23:24.807Z,70.10
2018-04-25T20:25:51.005Z,70.60
2018-04-25T20:28:17.084Z,71.30
2018-04-25T20:30:43.098Z,72.30
2018-04-25T20:33:09.095Z,72.70
2018-04-25T20:35:35.809Z,73.80
2018-04-25T20:38:01.806Z,73.80
2018-04-25T20:40:28.482Z,75.30
2018-04-25T20:42:54.861Z,75.10
2018-04-25T20:45:20.822Z,75.60
2018-04-25T20:47:47.558Z,76.60
2018-04-25T20:50:13.537Z,76.60
2018-04-25T20:52:39.490Z,77.00
2018-04-25T20:55:05.450Z,77.50
2018-04-25T20:57:31.411Z,78.30
2018-04-25T20:59:58.133Z,79.30
2018-04-25T21:02:24.181Z,78.80
2018-04-25T21:04:50.279Z,78.80
2018-04-25T21:07:17.039Z,80.80
2018-04-25T21:09:43.068Z,80.70
2018-04-25T21:12:09.078Z,81.30
2018-04-25T21:14:35.054Z,82.10
2018-04-25T21:17:01.025Z,83.00
2018-04-25T21:19:28.516Z,83.00
2018-04-25T21:21:54.990Z,82.90
2018-04-25T21:24:22.047Z,82.00
2018-04-25T21:26:48.108Z,81.30
2018-04-25T21:29:14.152Z,80.70
2018-04-25T21:31:40.124Z,80.20
2018-04-25T21:34:07.594Z,80.50
2018-04-25T21:36:35.031Z,80.50
2018-04-25T21:39:00.994Z,80.60
2018-04-25T21:41:28.432Z,81.70
2018-04-25T21:43:54.403Z,81.70
2018-04-25T21:46:21.115Z,83.10
2018-04-25T21:48:47.110Z,83.10
2018-04-25T21:51:13.890Z,83.80
2018-04-25T21:53:39.819Z,83.70
2018-04-25T21:56:05.775Z,83.80
2018-04-25T21:58:31.726Z,84.50
2018-04-25T22:00:57.951Z,84.60
2018-04-25T22:03:23.906Z,84.50
2018-04-25T22:05:49.879Z,85.00
2018-04-25T22:08:16.591Z,85.00
2018-04-25T22:10:42.554Z,85.00
2018-04-25T22:13:08.518Z,84.60
2018-04-25T22:15:41.391Z,85.60
2018-04-25T22:18:08.105Z,84.80
2018-04-25T22:20:34.071Z,84.60
2018-04-25T22:23:00.051Z,84.20
2018-04-25T22:25:26.003Z,83.80
2018-04-25T22:27:51.966Z,83.80
2018-04-25T22:30:17.950Z,81.90
2018-04-25T22:32:44.227Z,82.20
2018-04-25T22:35:10.215Z,81.70
2018-04-25T22:37:36.923Z,76.90
2018-04-25T22:40:02.889Z,76.80
2018-04-25T22:42:29.606Z,75.40
2018-04-25T22:44:55.567Z,75.30
2018-04-25T22:47:22.271Z,74.50
2018-04-25T22:49:48.315Z,74.30
2018-04-25T22:52:14.235Z,74.20
2018-04-25T22:54:40.206Z,74.10
2018-04-25T22:57:06.192Z,74.20
2018-04-25T22:59:32.151Z,74.20
2018-04-25T23:01:58.121Z,74.40
2018-04-25T23:04:24.071Z,72.70
2018-04-25T23:06:50.778Z,74.30
2018-04-25T23:09:16.768Z,74.30
2018-04-25T23:11:42.748Z,74.90
2018-04-25T23:14:08.707Z,74.60
2018-04-25T23:16:34.683Z,74.90
2018-04-25T23:19:01.380Z,68.70
2018-04-25T23:21:27.355Z,68.60
2018-04-25T23:23:54.059Z,67.30
2018-04-25T23:26:20.019Z,67.00
2018-04-25T23:28:46.017Z,65.50
2018-04-25T23:31:11.974Z,64.00
2018-04-25T23:33:38.467Z,63.10
2018-04-25T23:36:05.165Z,63.60
2018-04-25T23:38:31.116Z,63.50
2018-04-25T23:40:57.339Z,63.70
2018-04-25T23:43:23.302Z,63.00
2018-04-25T23:45:49.322Z,62.50
2018-04-25T23:48:15.279Z,62.40
2018-04-25T23:50:41.979Z,61.50
2018-04-25T23:53:07.943Z,61.30
2018-04-25T23:55:33.907Z,62.20
2018-04-25T23:57:59.859Z,63.00
